Aeroporto :
LOGIN :

Iscrizione | Disclaimer

   EN    FR    IT 

 










Sommario :    VFR   VFR Marginale   IFR   IFR Intensivo   IFR Molto Intensivo
Visibilità : 
Base nubi : 
>= 8 km
>= 3000ft
5 / 8 km
1000 / 3000 ft
1500m / 5 km
500 / 1000 ft
800 / 1500m
200 / 500 ft
< 800m
< 200 ft
Simboli :   Temporali  Nebbia  Neve Forte  Precipitazioni Forti  Vento > 20 kt
SIGMETs :   Varie  Temporali  Ghiacco  Turbolenza  Onda orograficha  Ceneri Vulcaniche






- Altitudine del aeroporto : 37 ft
- Codice IATA : FRO


ENFL - Florø

ULTIMO METAR :
  • 210520Z 32017KT 9999 FEW020 SCT040 06/01 Q1025

METARs OBSOLETI :
  • 210450Z 30019G30KT 9999 VCSH FEW020 SCT035 06/01 Q1026
  • 210420Z 31018KT 9999 -SHRA FEW012 SCT025 BKN030 06/03 Q1026
  • 210350Z AUTO 31020KT 9000NDV -SHRA FEW008/// BKN034/// OVC043/// 06/03 Q1025
  • 210320Z AUTO 30014KT 9999NDV -SHRA FEW023/// BKN039/// OVC047/// 06/04 Q1024
  • 210250Z AUTO 30014KT 9999NDV -SHRA FEW009/// BKN017/// BKN023/// 06/04 Q1024

TAF TAF ENFL
Valido dal 21 a 03 ore il 21 a 12 ore UTC


210200Z 2103/2112 29015KT 9999 -SHRA SCT015 BKN030



MetMap, La meteo Aeronautica in un colpo d'occhio ! - Copyright ORBIFLY Dicembre 2007 - Disclaimer

ORBIFLY MET'MAP TEAM :

Programmazione e sviluppo : Alexandra Zaïnal
Concezione : Baudouin d'Aumeries
Aiuto per la programmazione : Marc-Olivier Méhu
Supporto tecnico e logistico : Manuel Goepfert
Aiuto per la traduzione : Arnaldo La Scala

Contatto : metmap@orbifly.com




FONTI E CREDITI :

   NOAA